Time;durP1;ratioP1;P1;durP2;ratioP2;P2;SDS_P1;SDS_P2;PMS_P1;PMS_P2;Temp;Humidity;BMP_temperature;BMP_pressure;BME280_temperature;BME280_humidity;BME280_pressure;Samples;Min_cycle;Max_cycle;Signal;HPM_P1;HPM_P2
2023/11/05 00:00:12;;;;;;;1.13;0.63;;;14.70;88.00;;;;;;5036791;28;20068;-83
2023/11/05 00:02:37;;;;;;;1.08;0.50;;;14.70;88.00;;;;;;5036641;28;20025;-84
2023/11/05 00:05:03;;;;;;;0.75;0.40;;;14.70;88.00;;;;;;5054475;28;20083;-83
2023/11/05 00:07:29;;;;;;;0.65;0.40;;;14.70;88.10;;;;;;5054625;28;20021;-84
2023/11/05 00:09:54;;;;;;;0.90;0.50;;;14.70;88.10;;;;;;5036242;28;20502;-84
2023/11/05 00:12:20;;;;;;;0.47;0.30;;;14.70;88.10;;;;;;5036923;28;20148;-83
2023/11/05 00:14:45;;;;;;;1.20;0.40;;;14.70;88.10;;;;;;5054491;28;20845;-84
2023/11/05 00:17:11;;;;;;;0.73;0.40;;;14.70;88.10;;;;;;5036649;28;20048;-83
2023/11/05 00:19:36;;;;;;;0.82;0.32;;;14.70;88.10;;;;;;5036190;28;20112;-83
2023/11/05 00:22:02;;;;;;;0.60;0.40;;;14.70;88.20;;;;;;5036535;28;20039;-84
2023/11/05 00:24:27;;;;;;;1.00;0.50;;;14.70;88.20;;;;;;5036212;28;20021;-84
2023/11/05 00:26:53;;;;;;;0.50;0.40;;;14.60;88.70;;;;;;5053996;28;20028;-84
2023/11/05 00:29:19;;;;;;;0.80;0.50;;;14.60;88.30;;;;;;5035984;28;20445;-84
2023/11/05 00:31:44;;;;;;;1.58;0.50;;;14.70;88.30;;;;;;5036429;28;20049;-83
2023/11/05 00:34:10;;;;;;;0.98;0.50;;;14.60;88.20;;;;;;5036640;28;20021;-83
2023/11/05 00:36:35;;;;;;;0.88;0.50;;;14.70;88.20;;;;;;5035990;28;20033;-83
2023/11/05 00:39:01;;;;;;;0.75;0.40;;;14.70;88.20;;;;;;5053825;28;20025;-84
2023/11/05 00:41:27;;;;;;;0.82;0.45;;;14.70;88.00;;;;;;5053684;28;20029;-84
2023/11/05 00:43:52;;;;;;;0.73;0.45;;;14.80;87.80;;;;;;5036411;28;20483;-83
2023/11/05 00:46:18;;;;;;;0.82;0.47;;;14.70;87.70;;;;;;5054176;28;20036;-84
2023/11/05 00:48:44;;;;;;;0.57;0.40;;;14.70;87.70;;;;;;5036113;28;20036;-84
2023/11/05 00:51:09;;;;;;;0.80;0.50;;;14.70;87.80;;;;;;5036026;28;20025;-83
2023/11/05 00:53:35;;;;;;;1.23;0.50;;;14.80;87.80;;;;;;5035833;28;20025;-83
2023/11/05 00:56:00;;;;;;;0.60;0.45;;;14.70;87.80;;;;;;5036053;28;20494;-84
2023/11/05 00:58:26;;;;;;;0.50;0.40;;;14.70;87.90;;;;;;5035930;28;20039;-84
2023/11/05 01:00:52;;;;;;;0.95;0.50;;;14.70;87.90;;;;;;5036223;28;20028;-84
2023/11/05 01:03:17;;;;;;;1.45;0.50;;;14.70;88.10;;;;;;5054153;28;20067;-83
2023/11/05 01:05:43;;;;;;;0.50;0.40;;;14.70;88.00;;;;;;5053875;28;20434;-84
2023/11/05 01:08:08;;;;;;;1.38;0.45;;;14.70;88.10;;;;;;5035919;28;20021;-83
2023/11/05 01:10:34;;;;;;;0.82;0.40;;;14.70;88.10;;;;;;5036278;28;20102;-83
2023/11/05 01:12:59;;;;;;;0.63;0.40;;;14.70;88.10;;;;;;5054033;28;20021;-83
2023/11/05 01:15:25;;;;;;;0.70;0.43;;;14.70;88.20;;;;;;5053879;28;20398;-83
2023/11/05 01:17:51;;;;;;;1.02;0.40;;;14.60;88.10;;;;;;5035643;28;20028;-84
2023/11/05 01:20:16;;;;;;;0.77;0.40;;;14.70;88.20;;;;;;5035354;28;20029;-84
2023/11/05 01:22:42;;;;;;;1.08;0.50;;;14.70;88.30;;;;;;5035611;28;20032;-83
2023/11/05 01:25:08;;;;;;;0.70;0.45;;;14.60;88.20;;;;;;5035805;28;20524;-84
2023/11/05 01:27:33;;;;;;;0.85;0.50;;;14.60;88.10;;;;;;5035743;28;20051;-83
2023/11/05 01:29:59;;;;;;;1.33;0.50;;;14.60;88.20;;;;;;5035514;28;20088;-84
2023/11/05 01:32:25;;;;;;;1.77;0.70;;;14.60;88.20;;;;;;5053406;28;20094;-84
2023/11/05 01:34:50;;;;;;;1.08;0.50;;;14.60;88.20;;;;;;5053639;28;20029;-84
2023/11/05 01:37:16;;;;;;;1.40;0.50;;;14.60;88.10;;;;;;5035301;28;20036;-84
2023/11/05 01:39:41;;;;;;;0.80;0.43;;;14.60;88.10;;;;;;5035054;28;20487;-84
2023/11/05 01:42:07;;;;;;;0.65;0.40;;;14.60;88.20;;;;;;5036016;28;20123;-84
2023/11/05 01:44:33;;;;;;;1.08;0.50;;;14.60;88.20;;;;;;5035719;28;20044;-84
2023/11/05 01:46:59;;;;;;;1.38;0.40;;;14.60;88.20;;;;;;5053602;28;20021;-83
2023/11/05 01:49:26;;;;;;;0.82;0.40;;;14.60;88.30;;;;;;5053117;28;20508;-83
2023/11/05 01:51:52;;;;;;;1.88;0.50;;;14.60;88.40;;;;;;5053833;28;20490;-84
2023/11/05 01:54:18;;;;;;;0.68;0.47;;;14.60;88.40;;;;;;5057259;28;20025;-83
2023/11/05 01:56:44;;;;;;;1.33;0.55;;;14.70;88.40;;;;;;5057123;28;20025;-84
2023/11/05 01:59:10;;;;;;;1.50;0.50;;;14.60;88.20;;;;;;5038441;28;20475;-84
2023/11/05 02:01:36;;;;;;;1.08;0.60;;;14.70;88.10;;;;;;5038781;28;20036;-83
2023/11/05 02:04:02;;;;;;;1.13;0.40;;;14.70;88.00;;;;;;5038829;28;20037;-84
2023/11/05 02:06:27;;;;;;;0.93;0.50;;;14.70;87.80;;;;;;5038505;28;20079;-84
2023/11/05 02:08:53;;;;;;;1.33;0.50;;;14.70;87.80;;;;;;5056808;28;20036;-84
2023/11/05 02:11:18;;;;;;;0.82;0.40;;;14.70;87.70;;;;;;5038684;28;20040;-84
2023/11/05 02:13:52;;;;;;;1.25;0.50;;;14.70;87.70;;;;;;5038901;28;20071;-84
2023/11/05 02:16:20;;;;;;;1.45;0.57;;;14.70;87.70;;;;;;5038494;28;20029;-83
2023/11/05 02:18:46;;;;;;;1.30;0.47;;;14.70;87.80;;;;;;5038508;28;20021;-84
2023/11/05 02:21:17;;;;;;;0.47;0.35;;;14.70;88.20;;;;;;5056635;28;20483;-83
2023/11/05 02:23:42;;;;;;;0.55;0.43;;;14.70;88.00;;;;;;5038704;28;20025;-83
2023/11/05 02:26:09;;;;;;;1.15;0.57;;;14.70;88.10;;;;;;5038816;28;20025;-82
2023/11/05 02:28:35;;;;;;;1.92;0.82;;;14.70;88.10;;;;;;5038501;28;20035;-84
2023/11/05 02:31:00;;;;;;;1.17;0.40;;;14.70;88.20;;;;;;5038344;28;20387;-84
2023/11/05 02:33:26;;;;;;;0.80;0.50;;;14.60;88.20;;;;;;5056600;28;20087;-84
2023/11/05 02:35:52;;;;;;;2.17;0.88;;;14.60;88.20;;;;;;5038120;28;20021;-85
2023/11/05 02:38:18;;;;;;;1.42;0.50;;;14.60;88.20;;;;;;5042725;23;20060;-82
2023/11/05 02:40:43;;;;;;;1.40;0.57;;;14.60;88.30;;;;;;5021425;28;20494;-82
2023/11/05 02:43:09;;;;;;;1.10;0.50;;;14.60;88.30;;;;;;5021373;28;20460;-82
2023/11/05 02:45:34;;;;;;;1.67;0.50;;;14.60;88.30;;;;;;5021757;28;20290;-82
2023/11/05 02:48:00;;;;;;;0.73;0.40;;;14.60;88.30;;;;;;5021101;28;20028;-81
2023/11/05 02:50:25;;;;;;;0.43;0.40;;;14.60;88.40;;;;;;5020433;28;20033;-81
2023/11/05 02:52:51;;;;;;;2.10;0.60;;;14.60;88.40;;;;;;5021143;28;20018;-81
2023/11/05 02:55:17;;;;;;;0.57;0.43;;;14.60;88.40;;;;;;5020743;28;20064;-82
2023/11/05 02:57:42;;;;;;;1.17;0.40;;;14.60;88.40;;;;;;5020246;28;20399;-82
2023/11/05 03:00:10;;;;;;;2.05;0.50;;;14.60;88.40;;;;;;5020119;28;20061;-83
2023/11/05 03:02:37;;;;;;;1.60;0.47;;;14.60;88.90;;;;;;5020618;28;20084;-82
2023/11/05 03:05:04;;;;;;;2.47;0.52;;;14.60;88.40;;;;;;5019623;28;20040;-82
2023/11/05 03:07:30;;;;;;;0.85;0.40;;;14.60;88.50;;;;;;5019693;28;20116;-81
2023/11/05 03:09:55;;;;;;;1.40;0.47;;;14.60;88.40;;;;;;5041350;28;20029;-83
2023/11/05 03:12:21;;;;;;;2.30;0.60;;;14.60;88.40;;;;;;5022662;28;20028;-83
2023/11/05 03:14:46;;;;;;;0.93;0.50;;;14.60;88.50;;;;;;5025141;28;20014;-83
2023/11/05 03:17:12;;;;;;;0.60;0.50;;;14.60;88.60;;;;;;5023783;28;20032;-83
2023/11/05 03:19:38;;;;;;;1.33;0.50;;;14.60;88.50;;;;;;5041504;28;20018;-83
2023/11/05 03:22:05;;;;;;;1.13;0.50;;;14.60;89.10;;;;;;5024538;28;20029;-82
2023/11/05 03:24:31;;;;;;;1.15;0.50;;;14.60;88.40;;;;;;5023915;28;20052;-82
2023/11/05 03:26:56;;;;;;;0.93;0.50;;;14.60;88.30;;;;;;5040882;28;20037;-82
2023/11/05 03:29:22;;;;;;;0.93;0.50;;;14.70;88.20;;;;;;5022879;28;20101;-82
2023/11/05 03:31:49;;;;;;;1.20;0.50;;;14.70;88.10;;;;;;5022490;28;20026;-82
2023/11/05 03:34:15;;;;;;;0.82;0.40;;;14.70;88.00;;;;;;5040573;28;20021;-81
2023/11/05 03:36:40;;;;;;;1.73;0.50;;;14.70;88.00;;;;;;5021690;28;20499;-82
2023/11/05 03:39:06;;;;;;;1.67;0.50;;;14.70;88.00;;;;;;5021963;28;20116;-81
2023/11/05 03:41:31;;;;;;;1.63;0.50;;;14.70;88.00;;;;;;5021576;28;20025;-81
2023/11/05 03:43:57;;;;;;;0.93;0.45;;;14.70;88.10;;;;;;5022148;28;20029;-83
2023/11/05 03:46:22;;;;;;;0.57;0.32;;;14.60;88.10;;;;;;5020946;28;20029;-82
2023/11/05 03:48:48;;;;;;;0.95;0.40;;;14.60;88.10;;;;;;5020791;28;20044;-83
2023/11/05 03:51:14;;;;;;;1.02;0.30;;;14.60;88.20;;;;;;5021210;28;20480;-81
2023/11/05 03:53:40;;;;;;;1.92;0.57;;;14.60;88.30;;;;;;5038978;28;20029;-82
2023/11/05 03:56:06;;;;;;;1.58;0.50;;;14.60;88.30;;;;;;5039022;28;20395;-82
2023/11/05 03:58:31;;;;;;;1.73;0.50;;;14.60;88.40;;;;;;5038323;28;20025;-82
2023/11/05 04:00:58;;;;;;;0.75;0.38;;;14.60;88.40;;;;;;5038874;28;20026;-82
2023/11/05 04:03:23;;;;;;;0.70;0.43;;;14.60;88.50;;;;;;5021198;28;20136;-82
2023/11/05 04:05:50;;;;;;;0.55;0.40;;;14.60;88.50;;;;;;5038329;28;20029;-82
2023/11/05 04:08:16;;;;;;;1.25;0.50;;;14.60;88.60;;;;;;5038169;28;20055;-84
2023/11/05 04:10:41;;;;;;;1.45;0.52;;;14.60;88.50;;;;;;5037803;28;20033;-81
2023/11/05 04:13:07;;;;;;;0.82;0.40;;;14.60;88.60;;;;;;5019552;28;20021;-81
2023/11/05 04:15:32;;;;;;;0.82;0.52;;;14.60;88.60;;;;;;5018342;28;20372;-82
2023/11/05 04:17:58;;;;;;;1.05;0.50;;;14.60;88.60;;;;;;5019433;28;20032;-82
2023/11/05 04:20:23;;;;;;;1.55;0.47;;;14.60;88.70;;;;;;5037063;28;20075;-82
2023/11/05 04:22:49;;;;;;;1.02;0.47;;;14.60;88.70;;;;;;5019625;28;20574;-81
2023/11/05 04:25:15;;;;;;;1.52;0.50;;;14.60;88.60;;;;;;5036579;28;20028;-81
2023/11/05 04:27:40;;;;;;;2.13;0.50;;;14.60;88.60;;;;;;5018121;28;20031;-81
2023/11/05 04:30:06;;;;;;;1.10;0.60;;;14.50;88.60;;;;;;5035982;28;20033;-81
2023/11/05 04:32:32;;;;;;;2.05;0.50;;;14.60;88.70;;;;;;5018163;28;20487;-81
2023/11/05 04:34:57;;;;;;;2.30;0.65;;;14.60;88.70;;;;;;5036202;28;20083;-82
2023/11/05 04:37:23;;;;;;;2.03;0.50;;;14.60;88.70;;;;;;5017490;28;20026;-83
2023/11/05 04:39:48;;;;;;;2.70;0.60;;;14.60;88.80;;;;;;5017677;28;20029;-82
2023/11/05 04:42:14;;;;;;;0.95;0.50;;;14.60;88.80;;;;;;5017009;28;20083;-81
2023/11/05 04:44:39;;;;;;;1.20;0.50;;;14.60;88.80;;;;;;5016977;28;20029;-81
2023/11/05 04:47:05;;;;;;;1.15;0.40;;;14.60;88.70;;;;;;5016897;28;20036;-81
2023/11/05 04:49:31;;;;;;;0.77;0.40;;;14.60;88.70;;;;;;5016927;28;20021;-82
2023/11/05 04:51:57;;;;;;;1.13;0.50;;;14.60;88.60;;;;;;5017229;28;20030;-81
2023/11/05 04:54:22;;;;;;;1.75;0.60;;;14.60;88.40;;;;;;5035391;28;20026;-82
2023/11/05 04:56:48;;;;;;;0.63;0.40;;;14.70;88.40;;;;;;5034498;28;20060;-82
2023/11/05 04:59:13;;;;;;;1.58;0.60;;;14.60;88.20;;;;;;5016247;28;20047;-82
2023/11/05 05:01:39;;;;;;;1.30;0.60;;;14.70;88.30;;;;;;5016078;28;20022;-81
2023/11/05 05:04:05;;;;;;;1.23;0.40;;;14.60;88.20;;;;;;5016672;28;20025;-81
2023/11/05 05:06:30;;;;;;;0.70;0.50;;;14.60;88.20;;;;;;5034027;28;20037;-82
2023/11/05 05:08:56;;;;;;;1.50;0.63;;;14.60;88.30;;;;;;5033442;28;20415;-82
2023/11/05 05:11:21;;;;;;;1.50;0.60;;;14.70;88.40;;;;;;5033714;28;20500;-82
2023/11/05 05:13:47;;;;;;;1.02;0.40;;;14.60;88.40;;;;;;5026283;28;20026;-81
2023/11/05 05:16:19;;;;;;;1.50;0.70;;;14.60;88.50;;;;;;5012443;28;20026;-81
2023/11/05 05:18:45;;;;;;;1.33;0.43;;;14.60;88.50;;;;;;5012445;28;20400;-81
2023/11/05 05:21:10;;;;;;;0.93;0.55;;;14.60;88.60;;;;;;5012898;28;20026;-81
2023/11/05 05:23:36;;;;;;;0.80;0.38;;;14.60;88.70;;;;;;4995760;28;20040;-81
2023/11/05 05:26:02;;;;;;;1.10;0.50;;;14.60;88.70;;;;;;5025574;28;20040;-81
2023/11/05 05:28:28;;;;;;;0.60;0.40;;;14.60;88.70;;;;;;5035170;28;20025;-81
2023/11/05 05:30:54;;;;;;;1.30;0.50;;;14.60;88.80;;;;;;5037000;28;20498;-81
2023/11/05 05:33:19;;;;;;;1.88;0.70;;;14.60;88.80;;;;;;5037425;28;20013;-81
2023/11/05 05:35:45;;;;;;;1.08;0.45;;;14.50;88.80;;;;;;5021444;28;20047;-82
2023/11/05 05:38:12;;;;;;;1.45;0.47;;;14.60;88.90;;;;;;5044895;28;20029;-82
2023/11/05 05:40:37;;;;;;;0.65;0.40;;;14.60;88.90;;;;;;5026381;28;20039;-82
2023/11/05 05:43:03;;;;;;;0.90;0.50;;;14.50;88.80;;;;;;5026636;28;20112;-83
2023/11/05 05:45:28;;;;;;;2.05;0.60;;;14.60;88.90;;;;;;5026328;28;20060;-82
2023/11/05 05:47:54;;;;;;;1.20;0.50;;;14.50;88.80;;;;;;5027114;28;20021;-82
2023/11/05 05:50:19;;;;;;;2.20;0.60;;;14.60;89.00;;;;;;5043588;28;20487;-82
2023/11/05 05:52:45;;;;;;;0.82;0.43;;;14.50;88.90;;;;;;5025700;28;20041;-82
2023/11/05 05:55:14;;;;;;;0.40;0.30;;;14.60;89.00;;;;;;5043422;28;20022;-82
2023/11/05 05:57:41;;;;;;;0.82;0.40;;;14.50;88.90;;;;;;5024853;28;20083;-82
2023/11/05 06:00:09;;;;;;;1.90;0.50;;;14.50;88.90;;;;;;5024708;28;20032;-82
2023/11/05 06:02:35;;;;;;;1.45;0.43;;;14.60;89.00;;;;;;5042832;28;20018;-82
2023/11/05 06:05:01;;;;;;;0.57;0.40;;;14.50;89.00;;;;;;5024900;28;20507;-81
2023/11/05 06:07:31;;;;;;;0.75;0.30;;;14.50;89.00;;;;;;5024064;28;20059;-82
2023/11/05 06:09:57;;;;;;;0.80;0.40;;;14.60;89.50;;;;;;5041786;28;20029;-82
2023/11/05 06:12:23;;;;;;;1.58;0.45;;;14.60;89.00;;;;;;5023006;28;20021;-82
2023/11/05 06:14:49;;;;;;;0.95;0.55;;;14.60;88.90;;;;;;5022992;28;20060;-81
2023/11/05 06:17:14;;;;;;;0.55;0.30;;;14.60;88.70;;;;;;5022761;28;20026;-83
2023/11/05 06:19:40;;;;;;;0.52;0.32;;;14.60;88.60;;;;;;5040530;28;20079;-82
2023/11/05 06:22:05;;;;;;;1.33;0.40;;;14.60;88.50;;;;;;5022751;28;20540;-82
2023/11/05 06:24:31;;;;;;;0.75;0.43;;;14.60;88.50;;;;;;5022848;28;20028;-81
2023/11/05 06:26:56;;;;;;;1.40;0.50;;;14.70;88.50;;;;;;5022157;28;20021;-82
2023/11/05 06:29:22;;;;;;;0.65;0.30;;;14.60;88.50;;;;;;5021623;28;20380;-81
2023/11/05 06:31:47;;;;;;;1.35;0.50;;;14.60;88.50;;;;;;5039862;28;20032;-81
2023/11/05 06:34:13;;;;;;;1.67;0.40;;;14.60;88.50;;;;;;5021635;28;20027;-81
2023/11/05 06:36:58;;;;;;;0.88;0.30;;;14.60;88.60;;;;;;5019311;28;20010;-80
2023/11/05 06:39:23;;;;;;;0.70;0.30;;;14.60;88.70;;;;;;5016125;28;20184;-81
2023/11/05 06:41:49;;;;;;;1.75;0.70;;;14.60;88.80;;;;;;5033771;28;20661;-79
2023/11/05 06:44:15;;;;;;;1.23;0.40;;;14.60;88.90;;;;;;5014318;28;20036;-80
2023/11/05 06:46:40;;;;;;;1.92;0.57;;;14.60;88.90;;;;;;5015401;28;20037;-80
2023/11/05 06:49:06;;;;;;;0.50;0.35;;;14.50;88.80;;;;;;4997587;28;20029;-79
2023/11/05 06:51:31;;;;;;;1.48;0.40;;;14.50;88.90;;;;;;4997801;28;20080;-79
2023/11/05 06:53:57;;;;;;;0.68;0.40;;;14.60;89.00;;;;;;4997840;28;20049;-83
2023/11/05 06:56:23;;;;;;;1.63;0.45;;;14.60;89.00;;;;;;5020236;28;20025;-80
2023/11/05 06:58:48;;;;;;;0.40;0.22;;;14.50;88.90;;;;;;5017768;28;20494;-80
2023/11/05 07:01:14;;;;;;;0.90;0.50;;;14.60;89.10;;;;;;5009164;28;20059;-80
2023/11/05 07:03:39;;;;;;;1.23;0.30;;;14.50;89.00;;;;;;4999305;28;20036;-81
2023/11/05 07:06:06;;;;;;;0.88;0.40;;;14.50;89.00;;;;;;5016512;28;20030;-81
2023/11/05 07:08:31;;;;;;;0.82;0.43;;;14.50;89.00;;;;;;4999057;28;20034;-80
2023/11/05 07:10:57;;;;;;;0.68;0.40;;;14.50;89.00;;;;;;4999371;28;20088;-80
2023/11/05 07:13:23;;;;;;;0.40;0.40;;;14.50;89.10;;;;;;5024115;28;20025;-80
2023/11/05 07:15:48;;;;;;;0.75;0.40;;;14.50;89.00;;;;;;5017607;28;20116;-80
2023/11/05 07:18:14;;;;;;;0.82;0.40;;;14.50;89.10;;;;;;5018156;28;20079;-80
2023/11/05 07:20:39;;;;;;;1.65;0.40;;;14.50;89.10;;;;;;5035441;28;20885;-80
2023/11/05 07:23:05;;;;;;;1.00;0.40;;;14.50;89.10;;;;;;5017520;28;20034;-79
2023/11/05 07:25:31;;;;;;;0.75;0.38;;;14.50;89.10;;;;;;5019767;28;20092;-80
2023/11/05 07:27:58;;;;;;;0.88;0.38;;;14.50;89.10;;;;;;5017310;28;20068;-80
2023/11/05 07:30:23;;;;;;;1.63;0.50;;;14.50;89.20;;;;;;5033895;28;20074;-83
2023/11/05 07:32:49;;;;;;;0.40;0.35;;;14.50;89.20;;;;;;5016465;28;20029;-80
2023/11/05 07:35:15;;;;;;;1.80;0.40;;;14.60;89.20;;;;;;5035069;28;20727;-79
2023/11/05 07:37:42;;;;;;;0.88;0.43;;;14.50;89.10;;;;;;5016550;28;20029;-79
2023/11/05 07:40:09;;;;;;;0.70;0.40;;;14.60;89.10;;;;;;5034629;28;20483;-82
2023/11/05 07:42:36;;;;;;;0.65;0.30;;;14.60;89.00;;;;;;5015719;28;20040;-78
2023/11/05 07:45:02;;;;;;;1.02;0.30;;;14.60;88.80;;;;;;5015929;28;20021;-79
2023/11/05 07:47:27;;;;;;;0.68;0.38;;;14.70;88.80;;;;;;5015798;28;20487;-79
2023/11/05 07:49:53;;;;;;;0.80;0.30;;;14.60;88.80;;;;;;5033343;28;20049;-79
2023/11/05 07:52:18;;;;;;;0.22;0.15;;;14.60;88.70;;;;;;5034164;28;20391;-79
2023/11/05 07:54:44;;;;;;;1.23;0.30;;;14.60;88.80;;;;;;5015538;28;20025;-84
2023/11/05 07:57:10;;;;;;;0.43;0.30;;;14.60;88.90;;;;;;5034388;28;20678;-79
2023/11/05 07:59:36;;;;;;;0.80;0.32;;;14.60;88.90;;;;;;5033615;28;20025;-80
2023/11/05 08:02:01;;;;;;;0.45;0.22;;;14.60;89.00;;;;;;5016490;28;20029;-79
2023/11/05 08:04:27;;;;;;;1.23;0.30;;;14.60;89.00;;;;;;5016044;28;20509;-80
2023/11/05 08:06:54;;;;;;;1.65;0.52;;;14.60;89.10;;;;;;5015397;28;20037;-79
2023/11/05 08:09:21;;;;;;;1.45;0.38;;;14.50;89.10;;;;;;5012002;28;20368;-79
2023/11/05 08:11:46;;;;;;;1.27;0.60;;;14.50;89.00;;;;;;5030664;28;20491;-78
2023/11/05 08:14:12;;;;;;;1.05;0.40;;;14.60;89.20;;;;;;5014935;28;20029;-81
2023/11/05 08:16:37;;;;;;;0.68;0.40;;;14.60;89.20;;;;;;5015622;28;20075;-79
2023/11/05 08:19:03;;;;;;;1.23;0.40;;;14.60;89.70;;;;;;5016164;28;20021;-79
2023/11/05 08:21:29;;;;;;;0.43;0.32;;;14.60;89.20;;;;;;5015258;28;20475;-79
2023/11/05 08:23:57;;;;;;;1.73;0.40;;;14.60;89.20;;;;;;5015115;28;20372;-81
2023/11/05 08:26:22;;;;;;;0.82;0.40;;;14.60;89.20;;;;;;5032078;28;20383;-79
2023/11/05 08:28:48;;;;;;;1.85;0.75;;;14.50;89.10;;;;;;5013150;28;20021;-80
2023/11/05 08:31:13;;;;;;;0.73;0.40;;;14.50;89.10;;;;;;5014768;28;20025;-79
2023/11/05 08:33:40;;;;;;;1.00;0.30;;;14.60;89.20;;;;;;5033360;28;20024;-79
2023/11/05 08:36:07;;;;;;;0.93;0.30;;;14.60;89.20;;;;;;5033500;28;20022;-80
2023/11/05 08:38:32;;;;;;;0.57;0.30;;;14.60;89.20;;;;;;5033458;28;20040;-81
2023/11/05 08:40:58;;;;;;;1.42;0.40;;;14.60;89.20;;;;;;5034221;28;20025;-79
2023/11/05 08:43:23;;;;;;;0.93;0.30;;;14.60;89.10;;;;;;5014145;28;20022;-78
2023/11/05 08:45:49;;;;;;;0.45;0.35;;;14.60;89.20;;;;;;5013329;28;20045;-79
2023/11/05 08:48:15;;;;;;;0.40;0.20;;;14.60;89.10;;;;;;5029741;28;20459;-79
2023/11/05 08:50:41;;;;;;;0.68;0.40;;;14.70;89.20;;;;;;5011908;28;20526;-78
2023/11/05 08:53:07;;;;;;;0.75;0.28;;;14.60;89.20;;;;;;5011967;28;20036;-78
2023/11/05 08:55:37;;;;;;;0.82;0.40;;;14.70;89.10;;;;;;5012003;28;20025;-77
2023/11/05 08:58:03;;;;;;;0.45;0.30;;;14.70;89.00;;;;;;5011634;28;20025;-77
2023/11/05 09:00:32;;;;;;;0.80;0.30;;;14.80;88.90;;;;;;5011814;28;20541;-79
2023/11/05 09:03:00;;;;;;;0.65;0.30;;;14.80;88.70;;;;;;5021210;28;20029;-82
2023/11/05 09:05:26;;;;;;;5.63;0.55;;;14.80;88.60;;;;;;5039884;28;20033;-80
2023/11/05 09:07:52;;;;;;;3.58;0.40;;;14.80;88.30;;;;;;5036764;28;20136;-82
2023/11/05 09:10:20;;;;;;;5.32;0.55;;;14.80;88.30;;;;;;5018582;28;20124;-80
2023/11/05 09:12:46;;;;;;;7.82;1.05;;;14.80;88.40;;;;;;5036398;28;20060;-80
2023/11/05 09:15:11;;;;;;;5.53;0.65;;;14.80;88.20;;;;;;5035572;28;20048;-79
2023/11/05 09:17:37;;;;;;;6.10;0.98;;;14.80;88.40;;;;;;5042575;28;20487;-83
2023/11/05 09:20:03;;;;;;;6.70;0.75;;;14.80;88.50;;;;;;5025028;28;20047;-81
2023/11/05 09:22:29;;;;;;;3.05;0.60;;;14.70;88.50;;;;;;5025647;28;20480;-82
2023/11/05 09:25:01;;;;;;;3.92;0.60;;;14.70;88.60;;;;;;5027465;28;20058;-80
2023/11/05 09:27:29;;;;;;;3.65;0.73;;;14.70;88.70;;;;;;5044774;28;20056;-81
2023/11/05 09:29:55;;;;;;;7.15;0.70;;;14.70;88.90;;;;;;5042717;28;20029;-82
2023/11/05 09:32:21;;;;;;;3.35;0.60;;;14.70;88.90;;;;;;5044543;28;20426;-81
2023/11/05 09:34:47;;;;;;;5.60;0.68;;;14.60;88.90;;;;;;5026818;28;20415;-84
2023/11/05 09:37:12;;;;;;;3.97;0.50;;;14.70;89.00;;;;;;5025551;28;20075;-84
2023/11/05 09:39:38;;;;;;;5.05;0.70;;;14.70;89.10;;;;;;5040498;28;20064;-79
2023/11/05 09:42:04;;;;;;;3.35;0.50;;;14.70;89.10;;;;;;5021236;28;20044;-79
2023/11/05 09:44:29;;;;;;;5.00;0.70;;;14.70;89.10;;;;;;5021615;28;20029;-83
2023/11/05 09:49:42;;;;;;;2.30;0.60;;;14.70;89.20;;;;;;5015565;28;20046;-81
2023/11/05 09:52:11;;;;;;;5.13;0.85;;;14.70;89.30;;;;;;5013791;28;20117;-81
2023/11/05 09:54:40;;;;;;;3.55;0.50;;;14.60;89.20;;;;;;5016060;28;20080;-80
2023/11/05 09:57:07;;;;;;;4.22;0.65;;;14.60;89.30;;;;;;5016846;28;20029;-80
2023/11/05 09:59:32;;;;;;;4.03;0.60;;;14.60;89.30;;;;;;5016291;28;20026;-82
2023/11/05 10:01:59;;;;;;;3.97;0.55;;;14.60;89.30;;;;;;5016586;28;20026;-82
2023/11/05 10:04:24;;;;;;;1.75;0.47;;;14.60;89.30;;;;;;5016537;28;20096;-81
2023/11/05 10:06:50;;;;;;;1.80;0.60;;;14.60;89.30;;;;;;5016347;28;20483;-81
2023/11/05 10:09:16;;;;;;;1.50;0.40;;;14.60;89.30;;;;;;5016391;28;20037;-81
2023/11/05 10:11:44;;;;;;;1.25;0.40;;;14.60;89.40;;;;;;5016730;28;20079;-84
2023/11/05 10:14:14;;;;;;;2.67;0.50;;;14.60;89.30;;;;;;5015471;28;20022;-81
2023/11/05 10:16:39;;;;;;;2.03;0.40;;;14.60;89.30;;;;;;5016336;28;20420;-81
2023/11/05 10:19:05;;;;;;;2.55;0.40;;;14.70;89.30;;;;;;5017221;28;20030;-80
2023/11/05 10:21:35;;;;;;;2.40;0.50;;;14.70;89.30;;;;;;5015886;28;20052;-81
2023/11/05 10:24:01;;;;;;;1.80;0.50;;;14.70;89.20;;;;;;5015770;28;20053;-83
2023/11/05 10:26:30;;;;;;;2.90;0.52;;;14.70;89.10;;;;;;5017114;28;20029;-81
2023/11/05 10:28:56;;;;;;;2.80;0.57;;;14.70;89.10;;;;;;5015695;28;20124;-81
2023/11/05 10:31:24;;;;;;;2.75;0.68;;;14.70;88.90;;;;;;5015729;28;20018;-81
2023/11/05 10:33:54;;;;;;;2.60;0.47;;;14.70;88.90;;;;;;5015790;28;20531;-81
2023/11/05 10:36:21;;;;;;;2.58;0.43;;;14.70;88.90;;;;;;5016970;28;20543;-81
2023/11/05 10:38:51;;;;;;;1.75;0.50;;;14.70;89.50;;;;;;5015195;28;20062;-82
2023/11/05 10:41:18;;;;;;;0.95;0.30;;;14.70;89.00;;;;;;5015628;28;20111;-81
2023/11/05 10:43:47;;;;;;;2.83;0.50;;;14.70;89.10;;;;;;5016425;28;20472;-82
2023/11/05 10:46:20;;;;;;;3.55;0.63;;;14.60;89.10;;;;;;5000182;28;20023;-81
2023/11/05 10:48:49;;;;;;;2.28;0.43;;;14.70;89.20;;;;;;5040209;28;20039;-81
2023/11/05 10:51:19;;;;;;;2.40;0.50;;;14.60;89.20;;;;;;5055773;28;20043;-81
2023/11/05 10:53:47;;;;;;;1.63;0.50;;;14.60;89.20;;;;;;5055872;28;20017;-81
2023/11/05 10:56:36;;;;;;;1.40;0.63;;;14.70;89.20;;;;;;5055549;28;20036;-81
2023/11/05 10:59:03;;;;;;;4.00;0.40;;;14.80;89.10;;;;;;5055049;28;20032;-82
2023/11/05 11:01:35;;;;;;;0.88;0.40;;;14.80;89.00;;;;;;5054767;28;20264;-82
2023/11/05 11:04:17;;;;;;;2.78;0.45;;;14.80;88.90;;;;;;5055268;28;20143;-82
2023/11/05 11:06:44;;;;;;;0.65;0.40;;;14.80;88.90;;;;;;5056826;28;20055;-81
2023/11/05 11:09:22;;;;;;;1.23;0.55;;;14.80;88.90;;;;;;5055802;28;20027;-81
2023/11/05 11:11:48;;;;;;;2.10;0.63;;;14.80;88.90;;;;;;5055743;28;20047;-81
2023/11/05 11:14:15;;;;;;;0.73;0.30;;;14.80;88.90;;;;;;5054899;28;20032;-81
2023/11/05 11:16:42;;;;;;;1.92;0.55;;;14.80;88.90;;;;;;5054334;28;20021;-82
2023/11/05 11:19:13;;;;;;;0.85;0.47;;;14.80;89.00;;;;;;5054203;28;20025;-80
2023/11/05 11:21:55;;;;;;;1.57;0.57;;;14.80;89.00;;;;;;5054834;28;20028;-85
2023/11/05 11:24:33;;;;;;;2.83;0.60;;;14.80;89.10;;;;;;5054203;28;20745;-80
2023/11/05 11:27:00;;;;;;;1.83;0.43;;;14.80;89.10;;;;;;5054610;28;20087;-83
2023/11/05 11:29:26;;;;;;;2.53;0.40;;;14.80;89.00;;;;;;5054823;28;20036;-80
2023/11/05 11:31:53;;;;;;;1.58;0.40;;;14.80;88.90;;;;;;5055624;28;20029;-80
2023/11/05 11:34:20;;;;;;;1.10;0.47;;;14.80;88.90;;;;;;5053882;28;20387;-81
2023/11/05 11:36:57;;;;;;;2.70;0.50;;;14.80;88.90;;;;;;5054241;28;20020;-82
2023/11/05 11:39:22;;;;;;;1.15;0.43;;;14.80;89.00;;;;;;5055249;28;20025;-81
2023/11/05 11:41:48;;;;;;;0.52;0.30;;;14.90;89.00;;;;;;5053971;28;20514;-81
2023/11/05 11:44:14;;;;;;;1.27;0.40;;;14.80;88.90;;;;;;5055176;28;20039;-81
2023/11/05 11:46:39;;;;;;;1.98;0.50;;;14.80;88.90;;;;;;5053764;28;20054;-81
2023/11/05 11:49:12;;;;;;;1.40;0.50;;;14.90;88.80;;;;;;5053934;28;20029;-81
2023/11/05 11:51:38;;;;;;;1.63;0.60;;;14.90;88.80;;;;;;5055228;28;20067;-81
2023/11/05 11:54:04;;;;;;;1.15;0.40;;;14.90;88.70;;;;;;5055208;28;20021;-81
2023/11/05 11:56:31;;;;;;;1.23;0.50;;;14.90;88.70;;;;;;5053915;28;20070;-81
2023/11/05 11:59:03;;;;;;;1.15;0.40;;;14.90;88.70;;;;;;5055005;28;20028;-81
2023/11/05 12:01:29;;;;;;;0.82;0.43;;;14.80;88.70;;;;;;5054154;28;20029;-82
2023/11/05 12:03:59;;;;;;;1.17;0.40;;;14.80;88.80;;;;;;5054143;28;20150;-81
2023/11/05 12:06:27;;;;;;;0.77;0.40;;;14.80;88.90;;;;;;5053743;28;20082;-81
2023/11/05 12:08:54;;;;;;;1.70;0.45;;;14.80;89.00;;;;;;5053633;28;20043;-81
2023/11/05 12:11:20;;;;;;;1.33;0.50;;;14.80;89.10;;;;;;5054147;28;20021;-81
2023/11/05 12:13:46;;;;;;;1.92;0.50;;;14.80;89.10;;;;;;5055537;28;20629;-80
2023/11/05 12:16:15;;;;;;;0.77;0.40;;;14.80;89.10;;;;;;5053943;28;20025;-81
2023/11/05 12:18:42;;;;;;;1.52;0.40;;;14.80;89.20;;;;;;5053267;28;20525;-80
2023/11/05 12:21:09;;;;;;;2.33;0.40;;;14.80;89.30;;;;;;5053420;28;20120;-81
2023/11/05 12:23:36;;;;;;;1.42;0.60;;;14.80;89.30;;;;;;5054644;28;20029;-81
2023/11/05 12:26:03;;;;;;;1.45;0.50;;;14.70;89.30;;;;;;5053576;28;20018;-83
2023/11/05 12:28:29;;;;;;;1.83;0.50;;;14.70;89.30;;;;;;5052918;28;20063;-81
2023/11/05 12:30:56;;;;;;;0.90;0.40;;;14.80;89.40;;;;;;5053541;28;20029;-81
2023/11/05 12:33:23;;;;;;;1.38;0.40;;;14.80;89.40;;;;;;5054467;28;20013;-81
2023/11/05 12:35:50;;;;;;;0.65;0.35;;;14.70;89.40;;;;;;5054400;28;20021;-81
2023/11/05 12:38:16;;;;;;;0.95;0.40;;;14.70;89.40;;;;;;5053256;28;20056;-80
2023/11/05 12:40:41;;;;;;;0.50;0.30;;;14.70;89.40;;;;;;5054588;28;20083;-81
2023/11/05 12:43:07;;;;;;;1.15;0.55;;;14.70;89.50;;;;;;5053369;28;20083;-81
2023/11/05 12:45:32;;;;;;;0.77;0.50;;;14.70;89.50;;;;;;5054355;28;20036;-81